createdAt,value
2018-11-14T00:00:40.758Z,19.33
2018-11-14T00:02:43.091Z,18.30
2018-11-14T00:04:45.266Z,13.87
2018-11-14T00:06:47.512Z,15.70
2018-11-14T00:08:49.690Z,13.07
2018-11-14T00:10:51.873Z,16.93
2018-11-14T00:12:54.070Z,14.03
2018-11-14T00:14:56.250Z,14.83
2018-11-14T00:16:59.214Z,15.77
2018-11-14T00:19:01.373Z,18.77
2018-11-14T00:21:03.696Z,15.20
2018-11-14T00:23:05.871Z,14.60
2018-11-14T00:25:08.085Z,15.33
2018-11-14T00:27:10.713Z,19.00
2018-11-14T00:29:12.890Z,15.87
2018-11-14T00:31:15.052Z,18.53
2018-11-14T00:33:17.356Z,17.53
2018-11-14T00:35:19.423Z,15.23
2018-11-14T00:37:21.581Z,12.83
2018-11-14T00:39:23.763Z,20.03
2018-11-14T00:41:25.920Z,14.63
2018-11-14T00:43:28.091Z,17.33
2018-11-14T00:45:30.277Z,18.00
2018-11-14T00:47:32.438Z,22.40
2018-11-14T00:49:34.606Z,13.70
2018-11-14T00:51:36.804Z,19.93
2018-11-14T00:53:38.979Z,12.97
2018-11-14T00:55:41.153Z,14.17
2018-11-14T00:57:44.601Z,16.77
2018-11-14T00:59:46.770Z,13.03
2018-11-14T01:01:49.118Z,14.47
2018-11-14T01:03:51.294Z,12.67
2018-11-14T01:05:53.458Z,17.67
2018-11-14T01:07:55.897Z,14.90
2018-11-14T01:09:58.077Z,15.57
2018-11-14T01:12:00.255Z,20.83
2018-11-14T01:14:02.583Z,15.73
2018-11-14T01:16:04.769Z,18.43
2018-11-14T01:18:06.934Z,19.93
2018-11-14T01:20:10.701Z,17.03
2018-11-14T01:22:12.887Z,17.20
2018-11-14T01:24:15.061Z,16.97
2018-11-14T01:26:17.225Z,18.07
2018-11-14T01:28:19.398Z,23.50
2018-11-14T01:30:22.701Z,13.97
2018-11-14T01:32:24.875Z,14.00
2018-11-14T01:34:27.359Z,17.43
2018-11-14T01:36:29.540Z,16.90
2018-11-14T01:38:31.708Z,18.00
2018-11-14T01:40:33.925Z,27.37
2018-11-14T01:42:36.107Z,18.67
2018-11-14T01:44:38.295Z,15.23
2018-11-14T01:46:40.537Z,21.90
2018-11-14T01:48:42.741Z,17.50
2018-11-14T01:50:44.918Z,18.90
2018-11-14T01:52:47.368Z,20.33
2018-11-14T01:54:49.526Z,19.50
2018-11-14T01:56:51.746Z,16.03
2018-11-14T01:58:54.181Z,19.70
2018-11-14T02:00:56.386Z,19.33
2018-11-14T02:02:58.565Z,13.80
2018-11-14T02:05:00.786Z,24.57
2018-11-14T02:07:02.903Z,24.77
2018-11-14T02:09:05.710Z,15.20
2018-11-14T02:11:07.997Z,21.00
2018-11-14T02:13:10.170Z,17.73
2018-11-14T02:15:13.970Z,20.53
2018-11-14T02:17:16.186Z,13.13
2018-11-14T02:19:18.342Z,20.53
2018-11-14T02:21:20.545Z,19.23
2018-11-14T02:23:22.734Z,19.90
2018-11-14T02:25:24.911Z,18.87
2018-11-14T02:27:27.074Z,25.33
2018-11-14T02:29:29.554Z,15.73
2018-11-14T02:31:31.741Z,20.47
2018-11-14T02:33:33.936Z,17.17
2018-11-14T02:35:36.206Z,20.12
2018-11-14T02:37:39.201Z,19.07
2018-11-14T02:39:41.366Z,22.17
2018-11-14T02:41:43.545Z,22.10
2018-11-14T02:43:45.730Z,18.97
2018-11-14T02:45:47.938Z,18.30
2018-11-14T02:47:50.145Z,26.73
2018-11-14T02:49:52.333Z,25.07
2018-11-14T02:51:54.481Z,14.23
2018-11-14T02:53:56.719Z,24.73
2018-11-14T02:56:02.553Z,29.00
2018-11-14T02:58:04.698Z,25.10
2018-11-14T03:00:08.185Z,27.90
2018-11-14T03:02:10.351Z,31.30
2018-11-14T03:04:12.522Z,22.93
2018-11-14T03:06:15.058Z,25.80
2018-11-14T03:08:17.242Z,27.93
2018-11-14T03:10:20.582Z,34.13
2018-11-14T03:12:23.090Z,31.70
2018-11-14T03:14:25.269Z,27.03
2018-11-14T03:16:27.428Z,33.80
2018-11-14T03:18:30.018Z,32.70
2018-11-14T03:20:32.166Z,26.30
2018-11-14T03:22:34.338Z,33.33
2018-11-14T03:24:36.697Z,27.63
2018-11-14T03:26:38.841Z,29.13
2018-11-14T03:28:41.006Z,30.80
2018-11-14T03:30:43.558Z,38.63
2018-11-14T03:32:45.786Z,27.77
2018-11-14T03:34:47.919Z,28.40
2018-11-14T03:36:50.126Z,41.43
2018-11-14T03:38:52.299Z,30.37
2018-11-14T03:40:54.483Z,37.67
2018-11-14T03:42:56.666Z,31.12
2018-11-14T03:44:58.884Z,41.10
2018-11-14T03:47:01.381Z,30.73
2018-11-14T03:49:03.730Z,39.13
2018-11-14T03:51:05.937Z,31.73
2018-11-14T03:53:08.154Z,31.83
2018-11-14T03:55:10.363Z,38.33
2018-11-14T03:57:12.577Z,34.87
2018-11-14T03:59:14.773Z,36.10
2018-11-14T04:01:16.994Z,30.60
2018-11-14T04:03:19.153Z,37.43
2018-11-14T04:05:21.461Z,36.70
2018-11-14T04:07:23.578Z,39.07
2018-11-14T04:09:25.810Z,43.40
2018-11-14T04:11:28.075Z,35.87
2018-11-14T04:13:30.246Z,43.17
2018-11-14T04:15:32.421Z,45.07
2018-11-14T04:17:34.933Z,38.02
2018-11-14T04:19:37.203Z,42.83
2018-11-14T04:21:39.383Z,38.77
2018-11-14T04:23:47.220Z,41.60
2018-11-14T04:25:49.390Z,37.50
2018-11-14T04:27:51.561Z,45.70
2018-11-14T04:29:54.082Z,33.57
2018-11-14T04:31:56.285Z,44.90
2018-11-14T04:33:58.503Z,44.58
2018-11-14T04:36:00.962Z,45.00
2018-11-14T04:38:03.187Z,40.10
2018-11-14T04:40:06.209Z,52.33
2018-11-14T04:42:08.394Z,50.05
2018-11-14T04:44:10.590Z,49.10
2018-11-14T04:46:12.770Z,55.05
2018-11-14T04:48:15.096Z,51.45
2018-11-14T04:50:18.755Z,49.88
2018-11-14T04:52:20.909Z,52.90
2018-11-14T04:54:23.133Z,46.40
2018-11-14T04:56:25.309Z,51.05
2018-11-14T04:58:27.478Z,52.58
2018-11-14T05:00:29.765Z,53.52
2018-11-14T05:02:31.952Z,52.10
2018-11-14T05:04:34.099Z,58.23
2018-11-14T05:06:36.602Z,56.53
2018-11-14T05:08:38.812Z,66.23
2018-11-14T05:10:40.969Z,61.13
2018-11-14T05:12:43.565Z,59.33
2018-11-14T05:14:45.668Z,68.27
2018-11-14T05:16:47.859Z,73.60
2018-11-14T05:18:50.065Z,66.45
2018-11-14T05:20:54.357Z,72.97
2018-11-14T05:22:56.573Z,59.38
2018-11-14T05:24:58.781Z,71.47
2018-11-14T05:27:00.926Z,69.83
2018-11-14T05:29:03.105Z,63.17
2018-11-14T05:31:05.308Z,73.50
2018-11-14T05:33:07.530Z,77.67
2018-11-14T05:35:10.246Z,70.03
2018-11-14T05:37:12.560Z,89.40
2018-11-14T05:39:14.764Z,83.35
2018-11-14T05:41:17.006Z,78.97
2018-11-14T05:43:19.225Z,77.30
2018-11-14T05:45:22.713Z,68.12
2018-11-14T05:47:25.015Z,70.40
2018-11-14T05:49:27.221Z,79.97
2018-11-14T05:51:29.365Z,76.53
2018-11-14T05:53:31.708Z,69.83
2018-11-14T05:55:33.926Z,76.97
2018-11-14T05:57:36.610Z,75.07
2018-11-14T05:59:38.806Z,78.67
2018-11-14T06:01:40.977Z,65.93
2018-11-14T06:03:43.163Z,69.57
2018-11-14T06:05:45.330Z,80.60
2018-11-14T06:07:47.518Z,76.17
2018-11-14T06:09:49.721Z,67.43
2018-11-14T06:11:51.901Z,83.47
2018-11-14T06:13:54.104Z,69.37
2018-11-14T06:15:57.042Z,77.33
2018-11-14T06:18:02.746Z,73.43
2018-11-14T06:20:05.462Z,74.93
2018-11-14T06:22:07.823Z,84.10
2018-11-14T06:24:09.986Z,80.47
2018-11-14T06:26:12.137Z,76.40
2018-11-14T06:28:14.390Z,80.57
2018-11-14T06:30:16.899Z,81.60
2018-11-14T06:32:19.110Z,96.00
2018-11-14T06:34:21.461Z,85.00
2018-11-14T06:36:23.641Z,89.10
2018-11-14T06:38:26.114Z,83.50
2018-11-14T06:40:28.426Z,91.47
2018-11-14T06:42:30.670Z,92.60
2018-11-14T06:44:32.866Z,102.17
2018-11-14T06:46:35.045Z,92.77
2018-11-14T06:48:37.321Z,97.50
2018-11-14T06:50:40.495Z,80.47
2018-11-14T06:52:43.379Z,90.00
2018-11-14T06:54:45.568Z,83.30
2018-11-14T06:56:47.956Z,84.53
2018-11-14T06:58:50.152Z,93.17
2018-11-14T07:00:52.270Z,93.43
2018-11-14T07:02:54.809Z,87.90
2018-11-14T07:04:57.289Z,88.37
2018-11-14T07:06:59.394Z,94.33
2018-11-14T07:09:01.625Z,98.00
2018-11-14T07:11:04.646Z,97.30
2018-11-14T07:13:07.967Z,103.97
2018-11-14T07:15:12.515Z,96.63
2018-11-14T07:17:14.690Z,93.07
2018-11-14T07:19:16.883Z,83.63
2018-11-14T07:21:19.199Z,92.13
2018-11-14T07:23:21.601Z,80.57
2018-11-14T07:25:23.829Z,78.53
2018-11-14T07:27:26.079Z,89.00
2018-11-14T07:29:28.281Z,86.47
2018-11-14T07:31:31.032Z,79.07
2018-11-14T07:33:33.223Z,70.03
2018-11-14T07:35:35.603Z,87.03
2018-11-14T07:37:37.826Z,78.70
2018-11-14T07:39:39.976Z,83.73
2018-11-14T07:41:42.279Z,77.20
2018-11-14T07:43:44.719Z,89.40
2018-11-14T07:45:46.797Z,76.07
2018-11-14T07:47:49.088Z,62.83
2018-11-14T07:49:51.351Z,72.67
2018-11-14T07:51:53.534Z,79.57
2018-11-14T07:53:55.820Z,67.30
2018-11-14T07:55:58.018Z,61.30
2018-11-14T07:58:00.436Z,66.83
2018-11-14T08:00:03.031Z,70.57
2018-11-14T08:02:05.446Z,59.40
2018-11-14T08:04:07.914Z,65.03
2018-11-14T08:06:10.189Z,62.13
2018-11-14T08:08:12.459Z,54.33
2018-11-14T08:10:15.033Z,73.27
2018-11-14T08:12:17.394Z,60.93
2018-11-14T08:14:19.571Z,66.23
2018-11-14T08:16:22.018Z,72.80
2018-11-14T08:18:24.599Z,63.33
2018-11-14T08:20:26.861Z,68.23
2018-11-14T08:22:29.118Z,64.37
2018-11-14T08:24:31.459Z,56.73
2018-11-14T08:26:33.803Z,60.30
2018-11-14T08:28:36.050Z,54.70
2018-11-14T08:30:38.447Z,66.13
2018-11-14T08:32:40.793Z,59.07
2018-11-14T08:34:43.018Z,73.77
2018-11-14T08:36:45.527Z,58.40
2018-11-14T08:38:47.757Z,71.03
2018-11-14T08:40:49.938Z,57.87
2018-11-14T08:42:52.130Z,64.17
2018-11-14T08:44:54.306Z,64.63
2018-11-14T08:46:56.479Z,54.07
2018-11-14T08:48:58.677Z,67.17
2018-11-14T08:51:00.881Z,64.70
2018-11-14T08:53:03.108Z,59.47
2018-11-14T08:55:05.837Z,57.20
2018-11-14T08:57:08.002Z,58.83
2018-11-14T08:59:10.388Z,57.33
2018-11-14T09:01:12.578Z,65.90
2018-11-14T09:03:14.798Z,65.13
2018-11-14T09:05:17.154Z,60.27
2018-11-14T09:07:19.527Z,62.87
2018-11-14T09:09:21.701Z,64.70
2018-11-14T09:11:24.291Z,64.50
2018-11-14T09:13:26.543Z,71.17
2018-11-14T09:15:28.726Z,64.23
2018-11-14T09:17:31.162Z,80.30
2018-11-14T09:19:33.420Z,73.93
2018-11-14T09:21:35.834Z,71.13
2018-11-14T09:23:38.131Z,76.83
2018-11-14T09:25:40.600Z,66.50
2018-11-14T09:27:43.685Z,80.87
2018-11-14T09:29:45.939Z,72.60
2018-11-14T09:31:48.135Z,80.10
2018-11-14T09:33:50.532Z,80.50
2018-11-14T09:35:52.781Z,73.00
2018-11-14T09:37:56.031Z,75.77
2018-11-14T09:39:58.358Z,74.43
2018-11-14T09:42:00.585Z,72.77
2018-11-14T09:44:02.922Z,66.90
2018-11-14T09:46:05.253Z,59.17
2018-11-14T09:48:07.594Z,74.33
2018-11-14T09:50:11.688Z,67.67
2018-11-14T09:52:13.944Z,79.17
2018-11-14T09:54:16.370Z,67.80
2018-11-14T09:56:18.587Z,64.20
2018-11-14T09:58:20.793Z,69.10
2018-11-14T10:00:31.990Z,69.23
2018-11-14T10:02:34.119Z,71.00
2018-11-14T10:04:36.572Z,64.63
2018-11-14T10:06:39.037Z,52.03
2018-11-14T10:08:41.281Z,55.67
2018-11-14T10:10:43.533Z,49.33
2018-11-14T10:12:45.843Z,50.53
2018-11-14T10:14:48.168Z,51.40
2018-11-14T10:16:50.426Z,48.90
2018-11-14T10:18:53.114Z,52.60
2018-11-14T10:20:55.587Z,52.63
2018-11-14T10:22:57.829Z,52.07
2018-11-14T10:25:00.074Z,59.20
2018-11-14T10:27:02.452Z,54.13
2018-11-14T10:29:04.645Z,67.80
2018-11-14T10:31:06.838Z,51.10
2018-11-14T10:33:09.834Z,52.57
2018-11-14T10:35:12.087Z,55.87
2018-11-14T10:37:14.315Z,58.53
2018-11-14T10:39:16.923Z,69.17
2018-11-14T10:41:19.212Z,54.27
2018-11-14T10:43:21.657Z,52.70
2018-11-14T10:45:24.865Z,55.43
2018-11-14T10:47:27.146Z,51.97
2018-11-14T10:49:29.614Z,50.83
2018-11-14T10:51:31.834Z,51.40
2018-11-14T10:53:34.378Z,48.80
2018-11-14T10:55:36.596Z,49.93
2018-11-14T10:57:39.139Z,52.13
2018-11-14T10:59:41.559Z,53.07
2018-11-14T11:01:49.351Z,51.30
2018-11-14T11:03:57.289Z,50.97
2018-11-14T11:06:06.997Z,49.07
2018-11-14T11:08:15.045Z,51.77
2018-11-14T11:10:23.258Z,49.40
2018-11-14T11:13:29.354Z,46.93
2018-11-14T11:15:37.824Z,43.03
2018-11-14T11:17:45.718Z,50.33
2018-11-14T11:19:48.130Z,49.57
2018-11-14T11:21:50.491Z,50.80
2018-11-14T11:23:52.675Z,49.60
2018-11-14T11:25:54.898Z,48.67
2018-11-14T11:27:57.287Z,55.77
2018-11-14T11:29:59.523Z,51.80
2018-11-14T11:32:02.219Z,52.43
2018-11-14T11:34:04.588Z,48.90
2018-11-14T11:36:06.851Z,52.60
2018-11-14T11:38:09.100Z,50.87
2018-11-14T11:40:11.442Z,47.17
2018-11-14T11:42:13.709Z,47.77
2018-11-14T11:44:16.149Z,45.33
2018-11-14T11:46:18.392Z,55.70
2018-11-14T11:48:20.623Z,52.33
2018-11-14T11:50:22.858Z,47.20
2018-11-14T11:52:25.098Z,43.07
2018-11-14T11:54:27.824Z,50.53
2018-11-14T11:56:30.023Z,43.97
2018-11-14T11:58:32.228Z,41.27
2018-11-14T12:00:34.621Z,42.07
2018-11-14T12:02:38.346Z,43.47
2018-11-14T12:04:40.535Z,44.87
2018-11-14T12:06:42.727Z,37.53
2018-11-14T12:08:44.926Z,40.33
2018-11-14T12:10:47.196Z,47.60
2018-11-14T12:12:49.607Z,46.03
2018-11-14T12:14:51.796Z,47.57
2018-11-14T12:16:54.018Z,38.77
2018-11-14T12:18:56.241Z,44.10
2018-11-14T12:20:58.397Z,38.10
2018-11-14T12:23:01.054Z,42.30
2018-11-14T12:25:03.246Z,46.17
2018-11-14T12:27:05.823Z,41.77
2018-11-14T12:29:07.997Z,49.37
2018-11-14T12:31:10.705Z,44.63
2018-11-14T12:33:12.774Z,50.80
2018-11-14T12:35:15.974Z,44.83
2018-11-14T12:37:18.146Z,40.13
2018-11-14T12:39:20.318Z,43.57
2018-11-14T12:41:22.530Z,46.90
2018-11-14T12:43:24.761Z,44.80
2018-11-14T12:45:27.042Z,40.93
2018-11-14T12:47:29.266Z,47.23
2018-11-14T12:49:31.422Z,36.67
2018-11-14T12:51:33.592Z,43.03
2018-11-14T12:53:35.897Z,36.07
2018-11-14T12:55:38.290Z,39.93
2018-11-14T12:57:40.509Z,40.97
2018-11-14T12:59:43.276Z,44.63
2018-11-14T13:01:45.409Z,43.80
2018-11-14T13:03:47.701Z,45.20
2018-11-14T13:05:49.881Z,40.37
2018-11-14T13:07:52.065Z,45.23
2018-11-14T13:09:54.611Z,42.30
2018-11-14T13:11:57.114Z,48.90
2018-11-14T13:13:59.289Z,47.10
2018-11-14T13:16:01.458Z,48.33
2018-11-14T13:18:04.072Z,43.50
2018-11-14T13:20:07.318Z,51.03
2018-11-14T13:22:09.570Z,48.37
2018-11-14T13:24:11.873Z,43.50
2018-11-14T13:26:14.042Z,43.70
2018-11-14T13:28:16.229Z,45.83
2018-11-14T13:30:20.109Z,51.80
2018-11-14T13:32:22.262Z,43.63
2018-11-14T13:34:25.105Z,43.73
2018-11-14T13:36:27.662Z,41.80
2018-11-14T13:38:29.886Z,47.67
2018-11-14T13:40:32.085Z,39.77
2018-11-14T13:42:34.322Z,48.17
2018-11-14T13:44:36.582Z,40.17
2018-11-14T13:46:38.807Z,52.30
2018-11-14T13:48:41.159Z,45.30
2018-11-14T13:50:43.530Z,46.80
2018-11-14T13:52:45.631Z,39.93
2018-11-14T13:54:48.038Z,39.40
2018-11-14T13:56:50.196Z,46.23
2018-11-14T13:58:52.522Z,45.67
2018-11-14T14:00:54.751Z,45.20
2018-11-14T14:02:56.919Z,52.53
2018-11-14T14:04:59.101Z,49.60
2018-11-14T14:07:01.383Z,52.40
2018-11-14T14:09:05.694Z,47.30
2018-11-14T14:11:07.914Z,46.83
2018-11-14T14:13:10.438Z,47.07
2018-11-14T14:15:14.899Z,53.97
2018-11-14T14:17:17.126Z,44.33
2018-11-14T14:19:19.375Z,49.77
2018-11-14T14:21:21.611Z,44.53
2018-11-14T14:23:23.914Z,46.00
2018-11-14T14:25:26.404Z,43.57
2018-11-14T14:27:28.590Z,52.00
2018-11-14T14:29:30.766Z,43.70
2018-11-14T14:31:33.026Z,54.93
2018-11-14T14:33:35.596Z,56.47
2018-11-14T14:35:37.806Z,50.67
2018-11-14T14:37:40.181Z,51.33
2018-11-14T14:39:42.433Z,53.87
2018-11-14T14:41:44.655Z,60.17
2018-11-14T14:43:46.870Z,53.13
2018-11-14T14:45:49.066Z,50.63
2018-11-14T14:47:51.266Z,47.50
2018-11-14T14:49:53.468Z,56.27
2018-11-14T14:51:55.805Z,49.00
2018-11-14T14:53:58.019Z,56.60
2018-11-14T14:56:00.334Z,53.37
2018-11-14T14:58:02.602Z,52.50
2018-11-14T15:00:09.105Z,51.63
2018-11-14T15:02:11.327Z,57.47
2018-11-14T15:04:13.539Z,49.50
2018-11-14T15:06:15.719Z,58.13
2018-11-14T15:08:18.217Z,50.50
2018-11-14T15:10:21.628Z,47.17
2018-11-14T15:12:23.939Z,50.77
2018-11-14T15:14:26.169Z,52.83
2018-11-14T15:16:28.366Z,48.83
2018-11-14T15:18:30.682Z,44.10
2018-11-14T15:20:32.872Z,47.83
2018-11-14T15:22:35.118Z,47.90
2018-11-14T15:24:37.432Z,49.73
2018-11-14T15:26:39.657Z,53.43
2018-11-14T15:28:42.244Z,50.93
2018-11-14T15:30:44.498Z,54.83
2018-11-14T15:32:46.971Z,50.70
2018-11-14T15:34:49.181Z,49.67
2018-11-14T15:36:51.395Z,51.30
2018-11-14T15:38:53.651Z,48.00
2018-11-14T15:40:55.862Z,63.03
2018-11-14T15:42:58.279Z,47.33
2018-11-14T15:45:00.514Z,52.90
2018-11-14T15:47:02.722Z,43.67
2018-11-14T15:49:05.034Z,53.57
2018-11-14T15:51:07.314Z,47.13
2018-11-14T15:53:09.528Z,50.47
2018-11-14T15:55:12.473Z,53.90
2018-11-14T15:57:14.719Z,51.33
2018-11-14T15:59:17.038Z,49.13
2018-11-14T16:01:19.226Z,45.53
2018-11-14T16:03:21.544Z,53.00
2018-11-14T16:05:24.855Z,43.00
2018-11-14T16:07:27.205Z,48.67
2018-11-14T16:09:29.405Z,44.47
2018-11-14T16:11:31.745Z,46.13
2018-11-14T16:13:33.970Z,41.73
2018-11-14T16:15:36.859Z,50.33
2018-11-14T16:20:08.308Z,39.83
2018-11-14T16:22:10.603Z,43.80
2018-11-14T16:24:12.836Z,39.43
2018-11-14T16:26:15.699Z,39.47
2018-11-14T16:28:18.229Z,47.53
2018-11-14T16:30:23.048Z,41.80
2018-11-14T16:32:25.340Z,36.97
2018-11-14T16:34:27.698Z,40.77
2018-11-14T16:36:29.928Z,38.53
2018-11-14T16:38:32.283Z,41.10
2018-11-14T16:40:34.795Z,45.63
2018-11-14T16:42:37.422Z,38.27
2018-11-14T16:44:39.744Z,36.30
2018-11-14T16:46:42.091Z,38.00
2018-11-14T16:48:45.383Z,47.13
2018-11-14T16:50:47.790Z,40.40
2018-11-14T16:52:50.280Z,36.70
2018-11-14T16:54:52.677Z,43.97
2018-11-14T16:56:54.904Z,41.90
2018-11-14T16:58:57.283Z,46.57
2018-11-14T17:00:59.599Z,37.93
2018-11-14T17:03:01.903Z,34.93
2018-11-14T17:05:04.775Z,43.10
2018-11-14T17:07:07.011Z,35.57
2018-11-14T17:09:10.954Z,42.33
2018-11-14T17:11:13.270Z,35.63
2018-11-14T17:13:15.504Z,34.07
2018-11-14T17:15:19.497Z,41.13
2018-11-14T17:17:27.024Z,33.90
2018-11-14T17:19:31.213Z,34.33
2018-11-14T17:21:34.554Z,34.27
2018-11-14T17:32:40.299Z,35.53
2018-11-14T18:38:10.575Z,29.37
2018-11-14T18:40:14.177Z,32.47
2018-11-14T18:42:16.458Z,26.07
2018-11-14T18:44:19.062Z,29.20
2018-11-14T18:46:21.296Z,25.43
2018-11-14T18:48:23.504Z,31.93
2018-11-14T18:50:26.019Z,34.50
2018-11-14T18:52:28.275Z,29.60
2018-11-14T18:54:30.674Z,27.57
2018-11-14T18:56:32.852Z,27.00
2018-11-14T18:58:35.073Z,27.90
2018-11-14T19:00:37.248Z,27.43
2018-11-14T19:02:39.673Z,28.20
2018-11-14T19:04:42.189Z,28.43
2018-11-14T19:06:44.425Z,28.17
2018-11-14T19:08:47.091Z,29.93
2018-11-14T19:10:49.422Z,26.13
2018-11-14T19:12:52.260Z,29.63
2018-11-14T19:14:54.379Z,24.33
2018-11-14T19:16:56.746Z,25.77
2018-11-14T19:18:58.967Z,25.17
2018-11-14T19:21:01.103Z,26.70
2018-11-14T19:23:04.179Z,30.20
2018-11-14T19:25:07.163Z,26.40
2018-11-14T19:27:09.325Z,28.83
2018-11-14T19:29:11.502Z,23.77
2018-11-14T19:31:13.826Z,27.93
2018-11-14T19:33:15.978Z,25.60
2018-11-14T19:35:18.198Z,25.20
2018-11-14T19:37:20.445Z,24.37
2018-11-14T19:39:22.622Z,30.47
2018-11-14T19:41:24.810Z,24.97
2018-11-14T19:43:27.145Z,22.20
2018-11-14T19:45:32.003Z,24.70
2018-11-14T19:47:34.182Z,24.10
2018-11-14T19:49:36.702Z,28.70
2018-11-14T19:51:38.845Z,18.97
2018-11-14T19:53:41.031Z,25.50
2018-11-14T19:55:43.426Z,21.20
2018-11-14T19:57:46.542Z,21.80
2018-11-14T19:59:49.171Z,29.13
2018-11-14T20:01:51.398Z,18.83
2018-11-14T20:03:53.676Z,22.53
2018-11-14T20:05:55.933Z,26.23
2018-11-14T20:07:58.179Z,24.80
2018-11-14T20:10:00.389Z,27.03
2018-11-14T20:12:02.637Z,27.07
2018-11-14T20:14:04.804Z,24.00
2018-11-14T20:16:06.989Z,21.60
2018-11-14T20:18:09.261Z,26.07
2018-11-14T20:20:14.181Z,24.33
2018-11-14T20:22:16.367Z,17.80
2018-11-14T20:24:18.618Z,23.00
2018-11-14T20:26:20.871Z,18.30
2018-11-14T20:28:23.009Z,17.33
2018-11-14T20:30:29.097Z,24.93
2018-11-14T20:32:31.282Z,24.53
2018-11-14T20:34:33.667Z,17.37
2018-11-14T20:36:36.065Z,23.43
2018-11-14T20:40:47.904Z,20.53
2018-11-14T20:42:51.245Z,24.40
2018-11-14T20:44:54.281Z,23.23
2018-11-14T20:46:56.669Z,22.50
2018-11-14T20:49:05.936Z,24.73
2018-11-14T20:51:08.271Z,30.73
2018-11-14T20:53:11.814Z,26.50
2018-11-14T20:55:14.655Z,24.93
2018-11-14T20:57:17.065Z,21.60
2018-11-14T20:59:20.246Z,21.03
2018-11-14T21:01:22.662Z,25.97
2018-11-14T21:03:25.765Z,25.77
2018-11-14T21:05:28.765Z,22.37
2018-11-14T21:07:31.018Z,25.90
2018-11-14T21:09:33.473Z,21.90
2018-11-14T21:11:35.786Z,22.10
2018-11-14T21:13:38.095Z,18.93
2018-11-14T21:15:40.422Z,25.90
2018-11-14T21:17:42.790Z,24.37
2018-11-14T21:19:45.744Z,32.47
2018-11-14T21:21:48.748Z,27.03
2018-11-14T21:23:51.075Z,20.43
2018-11-14T21:25:53.514Z,23.70
2018-11-14T21:27:56.954Z,30.13
2018-11-14T21:30:01.625Z,24.87
2018-11-14T21:32:04.094Z,27.97
2018-11-14T21:34:06.465Z,21.90
2018-11-14T21:36:09.552Z,23.93
2018-11-14T21:38:13.274Z,27.20
2018-11-14T21:40:16.661Z,21.47
2018-11-14T21:42:21.602Z,21.83
2018-11-14T21:44:23.842Z,23.67
2018-11-14T21:46:26.022Z,32.30
2018-11-14T21:48:28.174Z,23.63
2018-11-14T21:50:31.091Z,18.77
2018-11-14T21:52:33.442Z,23.73
2018-11-14T21:54:35.782Z,27.10
2018-11-14T21:56:37.938Z,22.07
2018-11-14T21:58:40.107Z,20.80
2018-11-14T22:00:42.269Z,21.30
2018-11-14T22:02:45.974Z,22.10
2018-11-14T22:04:48.197Z,27.60
2018-11-14T22:06:50.367Z,23.63
2018-11-14T22:08:52.555Z,21.70
2018-11-14T22:10:54.761Z,21.00
2018-11-14T22:12:57.040Z,19.77
2018-11-14T22:14:59.379Z,18.03
2018-11-14T22:17:01.661Z,27.03
2018-11-14T22:19:04.163Z,23.57
2018-11-14T22:21:06.640Z,20.17
2018-11-14T22:23:08.745Z,22.43
2018-11-14T22:25:12.432Z,19.73
2018-11-14T22:27:15.078Z,19.00
2018-11-14T22:29:17.243Z,19.03
2018-11-14T22:31:19.447Z,17.30
2018-11-14T22:33:21.690Z,18.93
2018-11-14T22:35:25.045Z,20.30
2018-11-14T22:37:27.157Z,19.07
2018-11-14T22:39:29.314Z,23.60
2018-11-14T22:41:31.712Z,24.40
2018-11-14T22:43:33.918Z,19.00
2018-11-14T22:45:36.066Z,21.47
2018-11-14T22:47:39.103Z,22.30
2018-11-14T22:49:41.578Z,16.60
2018-11-14T22:51:43.753Z,16.77
2018-11-14T22:53:45.945Z,20.50
2018-11-14T22:55:49.205Z,23.57
2018-11-14T22:57:52.042Z,17.43
2018-11-14T22:59:54.226Z,19.87
2018-11-14T23:01:56.746Z,23.30
2018-11-14T23:03:59.004Z,32.63
2018-11-14T23:06:01.206Z,21.13
2018-11-14T23:08:03.416Z,19.27
2018-11-14T23:10:05.607Z,17.63
2018-11-14T23:12:07.775Z,20.27
2018-11-14T23:14:10.299Z,17.37
2018-11-14T23:16:12.438Z,19.10
2018-11-14T23:18:14.617Z,15.70
2018-11-14T23:20:17.296Z,20.33
2018-11-14T23:22:19.474Z,19.53
2018-11-14T23:24:21.627Z,18.60
2018-11-14T23:26:24.837Z,16.27
2018-11-14T23:28:27.130Z,19.53
2018-11-14T23:30:29.298Z,11.67
2018-11-14T23:32:31.575Z,16.53
2018-11-14T23:34:33.734Z,17.00
2018-11-14T23:36:35.890Z,18.20
2018-11-14T23:38:38.104Z,23.07
2018-11-14T23:40:40.257Z,18.17
2018-11-14T23:42:49.613Z,16.50
2018-11-14T23:44:51.800Z,17.00
2018-11-14T23:46:54.005Z,19.87
2018-11-14T23:48:56.201Z,16.80
2018-11-14T23:50:58.531Z,20.63
2018-11-14T23:53:01.533Z,17.77
2018-11-14T23:55:03.763Z,15.43
2018-11-14T23:57:06.398Z,16.27
2018-11-14T23:59:08.627Z,22.77
